Time;durP1;ratioP1;P1;durP2;ratioP2;P2;SDS_P1;SDS_P2;PMS_P1;PMS_P2;Temp;Humidity;BMP_temperature;BMP_pressure;BME280_temperature;BME280_humidity;BME280_pressure;Samples;Min_cycle;Max_cycle;Signal;HPM_P1;HPM_P2
2022/09/28 00:00:10;;;;;;;66.70;34.97;;;9.30;99.90;;;;;;9840767;30;20036;-81
2022/09/28 00:05:11;;;;;;;81.10;39.77;;;9.30;99.90;;;;;;9861340;30;20619;-81
2022/09/28 00:10:12;;;;;;;72.37;35.30;;;9.40;99.90;;;;;;9856421;30;20165;-79
2022/09/28 00:15:12;;;;;;;52.80;30.50;;;9.30;99.90;;;;;;9859978;30;20036;-79
2022/09/28 00:20:13;;;;;;;47.07;25.70;;;9.30;99.90;;;;;;9861287;30;20100;-78
2022/09/28 00:25:15;;;;;;;49.60;26.33;;;9.30;99.90;;;;;;9860026;30;20538;-81
2022/09/28 00:30:16;;;;;;;39.10;22.33;;;9.30;99.90;;;;;;9860117;30;20040;-81
2022/09/28 00:35:17;;;;;;;40.00;23.87;;;9.30;99.90;;;;;;9860539;30;20044;-80
2022/09/28 00:40:17;;;;;;;71.50;29.80;;;9.30;99.90;;;;;;9862349;30;20039;-81
2022/09/28 00:45:18;;;;;;;50.03;23.17;;;9.30;99.90;;;;;;9865295;30;20043;-79
2022/09/28 00:50:28;;;;;;;50.53;22.87;;;9.20;99.90;;;;;;9866362;30;20103;-80
2022/09/28 00:55:44;;;;;;;46.40;23.33;;;9.10;99.90;;;;;;9856584;30;20046;-80
2022/09/28 01:00:44;;;;;;;51.05;26.15;;;9.00;99.90;;;;;;9866875;30;20035;-82
2022/09/28 01:05:47;;;;;;;129.37;35.13;;;8.90;99.90;;;;;;9850455;30;20056;-79
2022/09/28 01:10:49;;;;;;;94.77;33.17;;;8.80;99.90;;;;;;9865329;30;20028;-80
2022/09/28 01:16:29;;;;;;;74.97;33.10;;;8.70;99.90;;;;;;9865913;30;20048;-80
2022/09/28 01:21:44;;;;;;;89.20;40.80;;;8.70;99.90;;;;;;9851246;30;20043;-80
2022/09/28 01:26:44;;;;;;;98.17;43.87;;;8.70;99.90;;;;;;9865325;30;20040;-80
2022/09/28 01:31:50;;;;;;;80.73;44.30;;;8.70;99.90;;;;;;9865416;30;20553;-80
2022/09/28 01:36:55;;;;;;;79.93;43.45;;;8.70;99.90;;;;;;9865360;30;20044;-80
2022/09/28 01:42:02;;;;;;;113.68;58.78;;;8.80;99.90;;;;;;9863734;30;20063;-81
2022/09/28 01:47:05;;;;;;;81.07;42.23;;;9.00;99.90;;;;;;9860074;30;20074;-83
2022/09/28 01:52:05;;;;;;;73.20;39.43;;;9.00;99.90;;;;;;9865752;30;20059;-80
2022/09/28 01:57:21;;;;;;;59.23;31.13;;;9.20;99.90;;;;;;9864050;30;20549;-80
2022/09/28 02:02:31;;;;;;;48.47;27.40;;;9.30;99.90;;;;;;9864378;30;20513;-82
2022/09/28 02:07:42;;;;;;;54.23;29.13;;;9.40;99.90;;;;;;9859402;30;20024;-80
2022/09/28 02:12:45;;;;;;;51.23;27.90;;;9.40;99.90;;;;;;9864342;30;20055;-81
2022/09/28 02:17:46;;;;;;;57.40;31.17;;;9.40;99.90;;;;;;9864845;30;20122;-82
2022/09/28 02:22:50;;;;;;;62.37;36.20;;;9.40;99.90;;;;;;9860681;30;20089;-81
2022/09/28 02:27:53;;;;;;;50.13;28.43;;;9.50;99.90;;;;;;9864522;30;20039;-79
2022/09/28 02:32:59;;;;;;;45.27;27.23;;;9.40;99.90;;;;;;9858696;30;20071;-82
2022/09/28 02:38:00;;;;;;;53.73;29.33;;;9.40;99.90;;;;;;9862970;30;20129;-80
2022/09/28 02:43:07;;;;;;;70.53;30.80;;;9.30;99.90;;;;;;9864088;30;20097;-81
2022/09/28 02:48:17;;;;;;;93.33;36.23;;;9.00;99.90;;;;;;9846782;30;20032;-79
2022/09/28 02:53:42;;;;;;;64.33;30.57;;;8.70;99.90;;;;;;9863587;30;20047;-82
2022/09/28 02:58:43;;;;;;;72.47;37.90;;;8.40;99.90;;;;;;9860770;30;20047;-81
2022/09/28 03:03:54;;;;;;;84.57;42.77;;;8.20;99.90;;;;;;9853968;30;20063;-80
2022/09/28 03:09:13;;;;;;;90.00;44.03;;;8.10;99.90;;;;;;9856553;30;20480;-82
2022/09/28 03:14:14;;;;;;;106.33;52.67;;;7.90;99.90;;;;;;9840423;30;20135;-80
2022/09/28 03:19:18;;;;;;;103.33;47.20;;;7.90;99.90;;;;;;9861807;30;20058;-80
2022/09/28 03:24:18;;;;;;;86.83;40.40;;;7.80;99.90;;;;;;9862408;30;20036;-82
2022/09/28 03:29:19;;;;;;;79.57;40.00;;;7.90;99.90;;;;;;9846568;30;20044;-80
2022/09/28 03:34:20;;;;;;;80.40;42.97;;;8.00;99.90;;;;;;9844334;30;20051;-81
2022/09/28 03:39:20;;;;;;;84.80;41.10;;;8.20;99.90;;;;;;9860927;30;20135;-80
2022/09/28 03:44:21;;;;;;;73.37;41.30;;;8.20;99.90;;;;;;9860526;30;20552;-78
2022/09/28 03:49:21;;;;;;;73.40;40.20;;;8.20;99.90;;;;;;9861564;30;20043;-82
2022/09/28 03:54:22;;;;;;;62.93;37.47;;;8.20;99.90;;;;;;9863058;30;20397;-80
2022/09/28 03:59:22;;;;;;;87.67;48.47;;;8.20;99.90;;;;;;9860510;30;20073;-80
2022/09/28 04:04:23;;;;;;;107.57;55.30;;;8.30;99.90;;;;;;9860099;30;20061;-80
2022/09/28 04:09:23;;;;;;;103.90;59.07;;;8.30;99.90;;;;;;9843922;30;20032;-83
2022/09/28 04:14:24;;;;;;;84.40;45.27;;;8.30;99.90;;;;;;9843139;30;20039;-80
2022/09/28 04:19:25;;;;;;;66.43;41.43;;;8.40;99.90;;;;;;9839671;30;20047;-80
2022/09/28 04:24:26;;;;;;;66.50;36.40;;;8.40;99.90;;;;;;9855555;30;20035;-81
2022/09/28 04:29:26;;;;;;;40.23;22.67;;;8.50;99.90;;;;;;9858919;30;20043;-84
2022/09/28 04:34:27;;;;;;;35.10;17.10;;;8.50;99.90;;;;;;9842715;30;20039;-82
2022/09/28 04:39:28;;;;;;;36.73;19.90;;;8.50;99.90;;;;;;9857923;30;20047;-82
2022/09/28 04:44:28;;;;;;;27.53;14.33;;;8.40;99.90;;;;;;9843948;30;20027;-82
2022/09/28 04:49:29;;;;;;;26.77;13.80;;;8.50;99.90;;;;;;9861240;30;20478;-84
2022/09/28 04:54:29;;;;;;;30.23;15.97;;;8.40;99.90;;;;;;9860400;30;20048;-82
2022/09/28 04:59:30;;;;;;;28.83;17.33;;;8.40;99.90;;;;;;9860069;30;20047;-83
2022/09/28 05:04:30;;;;;;;33.67;16.80;;;8.30;99.90;;;;;;9859909;30;20055;-82
2022/09/28 05:09:31;;;;;;;43.03;23.57;;;8.30;99.90;;;;;;9859817;30;20024;-82
2022/09/28 05:14:31;;;;;;;41.80;22.57;;;8.30;99.90;;;;;;9861028;30;20092;-82
2022/09/28 05:19:33;;;;;;;42.73;24.40;;;8.30;99.90;;;;;;9860005;30;20070;-81
2022/09/28 05:24:34;;;;;;;45.93;25.87;;;8.30;99.90;;;;;;9860012;30;20580;-81
2022/09/28 05:29:34;;;;;;;34.93;21.10;;;8.30;99.90;;;;;;9866189;30;20051;-81
2022/09/28 05:34:35;;;;;;;41.33;22.73;;;8.40;99.90;;;;;;9865913;30;20623;-83
2022/09/28 05:39:35;;;;;;;41.33;22.90;;;8.30;99.90;;;;;;9866001;30;20047;-83
2022/09/28 05:44:37;;;;;;;37.20;19.13;;;8.30;99.90;;;;;;9865812;30;20028;-82
2022/09/28 05:49:37;;;;;;;25.33;10.83;;;8.20;99.90;;;;;;9865726;30;20438;-83
2022/09/28 05:54:38;;;;;;;20.27;9.90;;;8.20;99.90;;;;;;9865478;30;20115;-82
2022/09/28 05:59:39;;;;;;;19.87;10.33;;;8.10;99.90;;;;;;9865334;30;20464;-81
2022/09/28 06:04:39;;;;;;;29.80;12.80;;;8.10;99.90;;;;;;9865168;30;20063;-81
2022/09/28 06:09:40;;;;;;;18.90;9.77;;;8.20;99.90;;;;;;9865038;30;20036;-81
2022/09/28 06:14:41;;;;;;;19.60;10.30;;;8.50;99.90;;;;;;9864587;30;20040;-81
2022/09/28 06:19:42;;;;;;;18.30;9.50;;;8.60;99.90;;;;;;9858832;30;20493;-82
2022/09/28 06:24:43;;;;;;;15.17;8.77;;;8.80;99.90;;;;;;9864202;30;20028;-82
2022/09/28 06:29:45;;;;;;;14.33;8.13;;;8.80;99.90;;;;;;9864703;30;20044;-82
2022/09/28 06:34:45;;;;;;;14.03;7.47;;;8.90;99.90;;;;;;9863987;30;20059;-85
2022/09/28 06:39:46;;;;;;;12.37;6.77;;;8.90;99.90;;;;;;9863135;30;20130;-83
2022/09/28 06:44:46;;;;;;;11.90;7.00;;;8.90;99.90;;;;;;9863965;30;20039;-82
2022/09/28 06:49:50;;;;;;;12.90;7.23;;;9.00;99.90;;;;;;9863473;30;20042;-82
2022/09/28 06:54:51;;;;;;;10.63;6.00;;;9.10;99.90;;;;;;9864620;30;20523;-82
2022/09/28 06:59:51;;;;;;;9.10;5.30;;;9.10;99.90;;;;;;9863045;30;20055;-81
2022/09/28 07:04:52;;;;;;;11.83;6.53;;;9.30;99.90;;;;;;9863468;30;20534;-83
2022/09/28 07:09:54;;;;;;;9.67;5.87;;;9.40;99.90;;;;;;9862877;30;20035;-83
2022/09/28 07:14:56;;;;;;;13.37;8.23;;;9.50;99.90;;;;;;9846375;30;20049;-82
2022/09/28 07:19:57;;;;;;;44.00;22.03;;;9.60;99.90;;;;;;9863059;30;20046;-81
2022/09/28 07:24:57;;;;;;;16.43;8.20;;;9.80;99.90;;;;;;9862552;30;20030;-82
2022/09/28 07:29:58;;;;;;;16.08;7.28;;;9.80;99.90;;;;;;9862875;30;20031;-84
2022/09/28 07:34:59;;;;;;;7.68;4.63;;;10.10;99.90;;;;;;9856233;30;20044;-83
2022/09/28 07:45:25;;;;;;;27.83;10.45;;;10.40;99.90;;;;;;9861869;30;20036;-83
2022/09/28 07:50:25;;;;;;;22.00;8.30;;;10.60;99.90;;;;;;9861254;30;20067;-82
2022/09/28 07:55:26;;;;;;;8.82;4.50;;;10.80;99.90;;;;;;9861463;30;20579;-83
2022/09/28 08:00:28;;;;;;;9.65;5.10;;;10.80;99.90;;;;;;9861735;30;20066;-84
2022/09/28 08:05:30;;;;;;;11.00;5.32;;;10.80;99.90;;;;;;9844968;30;20424;-81
2022/09/28 08:10:30;;;;;;;29.48;10.77;;;10.70;99.90;;;;;;9861359;30;20035;-84
2022/09/28 08:15:35;;;;;;;25.92;8.63;;;10.50;99.90;;;;;;9844996;30;20565;-83
2022/09/28 08:25:55;;;;;;;18.50;8.45;;;10.40;99.90;;;;;;9856576;30;20051;-84
2022/09/28 08:30:59;;;;;;;28.10;10.23;;;10.40;99.90;;;;;;9844631;30;20043;-81
2022/09/28 08:36:01;;;;;;;22.08;8.18;;;10.30;99.90;;;;;;9860694;30;20549;-85
2022/09/28 08:41:10;;;;;;;24.90;8.88;;;10.10;99.90;;;;;;9845050;30;20079;-83
2022/09/28 08:46:14;;;;;;;10.88;5.20;;;10.10;99.90;;;;;;9861284;30;20043;-82
2022/09/28 08:51:41;;;;;;;15.02;6.07;;;10.40;99.90;;;;;;9860538;30;20038;-83
2022/09/28 08:56:43;;;;;;;11.55;4.50;;;10.50;99.90;;;;;;9860712;30;20067;-82
2022/09/28 09:01:59;;;;;;;18.30;7.80;;;10.40;99.90;;;;;;9846206;30;20040;-85
2022/09/28 09:07:09;;;;;;;10.93;4.68;;;10.50;99.90;;;;;;9867783;30;20052;-82
2022/09/28 09:12:58;;;;;;;14.45;6.07;;;10.50;99.90;;;;;;9850998;30;20043;-84
2022/09/28 09:18:11;;;;;;;7.53;3.90;;;10.60;99.90;;;;;;9842658;30;20108;-82
2022/09/28 09:23:23;;;;;;;9.05;2.92;;;11.10;99.90;;;;;;9848884;30;20584;-82
2022/09/28 09:28:39;;;;;;;9.50;3.78;;;11.50;99.90;;;;;;9865569;30;20070;-82
2022/09/28 09:33:39;;;;;;;10.52;4.28;;;11.70;99.90;;;;;;9864171;30;20470;-81
2022/09/28 09:38:55;;;;;;;17.30;6.35;;;11.50;99.90;;;;;;9865589;30;20054;-81
2022/09/28 09:44:12;;;;;;;7.72;2.95;;;11.50;99.90;;;;;;9865559;30;20106;-79
2022/09/28 09:49:23;;;;;;;3.38;1.45;;;11.50;99.90;;;;;;9843993;30;20066;-80
2022/09/28 09:54:45;;;;;;;6.93;2.92;;;11.40;99.90;;;;;;9866309;30;20035;-82
2022/09/28 09:59:47;;;;;;;5.85;2.85;;;11.60;99.90;;;;;;9865915;30;20066;-80
2022/09/28 10:04:52;;;;;;;7.07;2.70;;;12.20;99.90;;;;;;9865618;30;20051;-81
2022/09/28 10:09:57;;;;;;;4.47;2.00;;;12.50;99.90;;;;;;9865264;30;20059;-81
2022/09/28 10:14:57;;;;;;;3.77;2.00;;;12.50;99.90;;;;;;9865341;30;20035;-80
2022/09/28 10:19:58;;;;;;;5.30;2.30;;;12.80;99.90;;;;;;9848576;30;20699;-82
2022/09/28 10:24:59;;;;;;;2.90;2.05;;;13.30;99.90;;;;;;9864713;30;20031;-80
2022/09/28 10:30:17;;;;;;;4.68;2.30;;;13.60;99.90;;;;;;9864823;30;20423;-80
2022/09/28 10:35:18;;;;;;;5.25;1.70;;;13.50;99.90;;;;;;9864624;30;20507;-82
2022/09/28 10:40:38;;;;;;;3.97;2.40;;;13.60;99.90;;;;;;9848092;30;20044;-80
2022/09/28 10:45:38;;;;;;;2.38;1.65;;;13.60;99.90;;;;;;9864419;30;20051;-82
2022/09/28 10:50:40;;;;;;;5.28;2.30;;;13.30;99.90;;;;;;9864007;30;20793;-82
2022/09/28 10:55:40;;;;;;;3.30;1.80;;;13.40;99.90;;;;;;9863333;30;20046;-81
2022/09/28 11:00:43;;;;;;;1.35;1.00;;;13.70;99.90;;;;;;9863447;30;20782;-80
2022/09/28 11:06:05;;;;;;;1.17;0.98;;;14.00;99.90;;;;;;9862758;30;20052;-81
2022/09/28 11:11:12;;;;;;;1.02;0.90;;;14.40;99.90;;;;;;9858081;30;20059;-81
2022/09/28 11:16:27;;;;;;;2.20;0.90;;;14.50;99.90;;;;;;9862517;30;20466;-80
2022/09/28 11:21:33;;;;;;;1.50;0.85;;;14.60;99.90;;;;;;9863096;30;20542;-82
2022/09/28 11:26:40;;;;;;;2.03;1.25;;;14.70;99.90;;;;;;9862080;30;20035;-82
2022/09/28 11:31:42;;;;;;;1.88;1.13;;;14.50;99.90;;;;;;9862636;30;20043;-81
2022/09/28 11:37:21;;;;;;;2.33;1.30;;;14.40;99.90;;;;;;9862290;30;20044;-80
2022/09/28 11:42:40;;;;;;;3.13;1.10;;;14.60;99.90;;;;;;9833722;30;20052;-80
2022/09/28 11:47:52;;;;;;;1.92;0.98;;;14.70;99.90;;;;;;9845505;30;20035;-80
2022/09/28 11:53:12;;;;;;;2.47;1.10;;;14.60;99.90;;;;;;9858711;30;20039;-79
2022/09/28 11:58:26;;;;;;;2.55;0.90;;;14.50;99.90;;;;;;9861794;30;20044;-81
2022/09/28 12:03:39;;;;;;;1.58;0.70;;;14.80;99.90;;;;;;9860683;30;20083;-82
2022/09/28 12:08:44;;;;;;;2.35;0.98;;;14.90;99.90;;;;;;9861425;30;20563;-79
2022/09/28 12:13:51;;;;;;;4.28;1.20;;;15.20;99.90;;;;;;9861271;30;20032;-82
2022/09/28 12:19:04;;;;;;;2.78;1.13;;;15.80;99.90;;;;;;9861193;30;20493;-82
2022/09/28 12:24:28;;;;;;;1.10;0.85;;;15.80;99.90;;;;;;9861152;30;20359;-79
2022/09/28 12:29:35;;;;;;;1.90;0.90;;;15.80;99.90;;;;;;9861653;30;20080;-80
2022/09/28 12:34:35;;;;;;;3.72;1.90;;;15.90;99.90;;;;;;9861649;30;20516;-80
2022/09/28 12:40:12;;;;;;;3.72;1.73;;;15.90;99.90;;;;;;9867438;30;20040;-81
2022/09/28 12:45:34;;;;;;;12.63;5.50;;;16.00;99.90;;;;;;9862962;30;20116;-82
2022/09/28 12:50:47;;;;;;;3.45;1.52;;;15.90;99.90;;;;;;9861186;30;20023;-82
2022/09/28 12:56:10;;;;;;;22.42;13.13;;;15.70;99.90;;;;;;9863533;30;20085;-80
2022/09/28 13:01:53;;;;;;;74.75;35.47;;;15.60;99.90;;;;;;9866972;30;20035;-79
2022/09/28 13:07:20;;;;;;;52.67;24.75;;;15.80;99.90;;;;;;9861992;30;20059;-82
2022/09/28 13:12:58;;;;;;;31.02;14.27;;;15.90;99.90;;;;;;9860590;30;20043;-81
2022/09/28 13:18:17;;;;;;;37.83;18.58;;;15.60;99.90;;;;;;9845730;30;20063;-80
2022/09/28 13:23:29;;;;;;;26.45;11.45;;;15.60;99.90;;;;;;9865447;30;20106;-83
2022/09/28 13:28:31;;;;;;;2.85;1.48;;;15.50;99.90;;;;;;9859944;30;20047;-82
2022/09/28 13:33:38;;;;;;;37.60;22.17;;;15.40;99.90;;;;;;9865314;30;20481;-81
2022/09/28 13:38:48;;;;;;;34.85;20.20;;;15.10;99.90;;;;;;9850453;30;20124;-80
2022/09/28 13:44:16;;;;;;;5.75;2.33;;;14.90;99.90;;;;;;9866382;30;20039;-80
2022/09/28 13:49:35;;;;;;;6.47;1.73;;;14.60;99.90;;;;;;9859542;30;20036;-81
2022/09/28 13:54:42;;;;;;;5.85;2.45;;;14.50;99.90;;;;;;9862742;30;20528;-81
2022/09/28 14:00:09;;;;;;;4.15;1.88;;;14.40;99.90;;;;;;9865063;30;20131;-80
2022/09/28 14:05:22;;;;;;;4.07;1.38;;;14.30;99.90;;;;;;9865096;30;20109;-80
2022/09/28 14:10:42;;;;;;;3.17;2.05;;;14.20;99.90;;;;;;9863614;30;20075;-82
2022/09/28 14:15:44;;;;;;;14.02;10.73;;;14.10;99.90;;;;;;9859984;30;20480;-79
2022/09/28 14:20:59;;;;;;;4.57;2.35;;;14.10;99.90;;;;;;9848136;30;20116;-81
2022/09/28 14:26:19;;;;;;;6.60;3.03;;;14.00;99.90;;;;;;9856263;30;20075;-80
2022/09/28 14:31:26;;;;;;;6.47;4.72;;;13.90;99.90;;;;;;9863731;30;20446;-80
2022/09/28 14:41:55;;;;;;;4.65;2.47;;;13.90;99.90;;;;;;9861026;30;20079;-81
2022/09/28 14:47:34;;;;;;;3.28;2.05;;;13.90;99.90;;;;;;9863357;30;20051;-82
2022/09/28 14:52:45;;;;;;;4.15;2.53;;;13.80;99.90;;;;;;9860941;30;20032;-82
2022/09/28 14:57:54;;;;;;;3.70;2.20;;;13.80;99.90;;;;;;9860499;30;20052;-82
2022/09/28 15:02:59;;;;;;;6.93;3.53;;;13.70;99.90;;;;;;9860078;30;20052;-82
2022/09/28 15:08:00;;;;;;;10.15;4.50;;;13.60;99.90;;;;;;9843934;30;20035;-81
2022/09/28 15:13:15;;;;;;;14.93;7.45;;;13.50;99.90;;;;;;9860813;30;20101;-79
2022/09/28 15:18:27;;;;;;;27.65;15.07;;;13.40;99.90;;;;;;9862573;30;20405;-79
2022/09/28 15:23:42;;;;;;;9.13;3.60;;;13.40;99.90;;;;;;9846525;30;20385;-82
2022/09/28 15:28:43;;;;;;;6.97;2.35;;;13.40;99.90;;;;;;9855030;30;20580;-82
2022/09/28 15:39:33;;;;;;;17.92;8.98;;;13.30;99.90;;;;;;9857004;30;20051;-82
2022/09/28 15:44:35;;;;;;;21.80;11.57;;;13.20;99.90;;;;;;9861134;30;20070;-78
2022/09/28 15:49:57;;;;;;;79.47;71.57;;;13.20;99.90;;;;;;9861496;30;20628;-79
2022/09/28 15:55:00;;;;;;;21.88;9.82;;;13.10;99.90;;;;;;9861731;30;20036;-81
2022/09/28 16:00:02;;;;;;;32.40;26.77;;;12.80;99.90;;;;;;9857301;30;20467;-80
2022/09/28 16:05:04;;;;;;;25.08;19.17;;;12.50;99.90;;;;;;9858214;30;20055;-78
2022/09/28 16:10:07;;;;;;;22.20;9.35;;;12.20;99.90;;;;;;9863422;30;20031;-78
2022/09/28 16:15:27;;;;;;;11.73;7.30;;;12.10;99.90;;;;;;9858946;30;20047;-77
2022/09/28 16:20:36;;;;;;;114.45;87.10;;;12.00;99.90;;;;;;9860085;30;20520;-79
2022/09/28 16:25:38;;;;;;;76.43;34.83;;;11.90;99.90;;;;;;9858889;30;20036;-79
2022/09/28 16:31:06;;;;;;;41.20;22.02;;;11.70;99.90;;;;;;9859367;30;20047;-81
2022/09/28 16:36:12;;;;;;;76.05;37.00;;;11.80;99.90;;;;;;9858833;30;20051;-83
2022/09/28 16:41:18;;;;;;;58.35;25.45;;;11.80;99.90;;;;;;9857043;30;20126;-80
2022/09/28 16:46:22;;;;;;;55.42;47.60;;;11.80;99.90;;;;;;9859314;30;20047;-83
2022/09/28 16:51:23;;;;;;;37.42;17.30;;;11.80;99.90;;;;;;9860257;30;20043;-79
2022/09/28 16:56:25;;;;;;;29.40;18.90;;;11.80;99.90;;;;;;9857030;30;20493;-79
2022/09/28 17:01:28;;;;;;;51.40;21.08;;;11.80;99.90;;;;;;9850612;30;20053;-79
2022/09/28 17:06:28;;;;;;;26.35;13.65;;;11.80;99.90;;;;;;9862864;30;20064;-82
2022/09/28 17:11:29;;;;;;;22.48;17.05;;;11.80;99.90;;;;;;9860701;30;20036;-80
2022/09/28 17:16:31;;;;;;;44.45;19.50;;;11.80;99.90;;;;;;9858539;30;20163;-83
2022/09/28 17:21:32;;;;;;;22.88;10.98;;;11.90;99.90;;;;;;9856333;30;20035;-80
2022/09/28 17:26:33;;;;;;;21.77;11.90;;;11.90;99.90;;;;;;9840880;30;20039;-83
2022/09/28 17:31:34;;;;;;;17.88;9.50;;;11.90;99.90;;;;;;9864484;30;20028;-81
2022/09/28 17:36:35;;;;;;;12.90;7.45;;;11.90;99.90;;;;;;9866301;30;20400;-79
2022/09/28 17:41:36;;;;;;;16.10;8.65;;;11.80;99.90;;;;;;9849745;30;20469;-81
2022/09/28 17:46:44;;;;;;;17.92;9.85;;;11.80;99.90;;;;;;9859804;30;20088;-80
2022/09/28 17:51:45;;;;;;;15.40;8.73;;;11.70;99.90;;;;;;9846896;30;20046;-79
2022/09/28 17:56:45;;;;;;;11.68;6.72;;;11.60;99.90;;;;;;9861567;30;20047;-80
2022/09/28 18:01:46;;;;;;;11.70;6.70;;;11.50;99.90;;;;;;9861537;30;20495;-82
2022/09/28 18:06:47;;;;;;;11.18;6.32;;;11.40;99.90;;;;;;9866170;30;20028;-83
2022/09/28 18:11:55;;;;;;;10.48;6.47;;;11.40;99.90;;;;;;9867877;30;20031;-81
2022/09/28 18:16:56;;;;;;;11.65;6.18;;;11.30;99.90;;;;;;9863945;30;20360;-81
2022/09/28 18:21:57;;;;;;;11.63;6.22;;;11.30;99.90;;;;;;9864512;30;20076;-79
2022/09/28 18:26:58;;;;;;;11.15;6.50;;;11.30;99.90;;;;;;9866487;30;20036;-81
2022/09/28 18:31:59;;;;;;;12.73;6.28;;;11.20;99.90;;;;;;9864072;30;20409;-77
2022/09/28 18:37:00;;;;;;;11.43;7.05;;;11.20;99.90;;;;;;9859054;30;20047;-79
2022/09/28 18:42:01;;;;;;;9.15;6.00;;;11.20;99.90;;;;;;9862471;30;20040;-79
2022/09/28 18:47:02;;;;;;;8.27;5.10;;;11.20;99.90;;;;;;9859788;30;20058;-81
2022/09/28 18:52:02;;;;;;;11.98;6.90;;;11.20;99.90;;;;;;9864122;30;20804;-80
2022/09/28 18:57:04;;;;;;;11.57;6.97;;;11.20;99.90;;;;;;9863600;30;20092;-78
2022/09/28 19:02:04;;;;;;;18.25;10.50;;;11.20;99.90;;;;;;9866137;30;20053;-82
2022/09/28 19:07:06;;;;;;;26.08;14.25;;;11.10;99.90;;;;;;9861579;30;20401;-79
2022/09/28 19:12:07;;;;;;;49.03;27.35;;;11.10;99.90;;;;;;9862247;30;20032;-79
2022/09/28 19:17:08;;;;;;;29.65;17.42;;;11.10;99.90;;;;;;9862261;30;20062;-80
2022/09/28 19:22:10;;;;;;;36.33;19.38;;;11.10;99.90;;;;;;9862898;30;20085;-81
2022/09/28 19:27:11;;;;;;;20.88;12.88;;;11.00;99.90;;;;;;9860681;30;20751;-77
2022/09/28 19:32:12;;;;;;;28.33;16.42;;;10.80;99.90;;;;;;9844155;30;20046;-78
2022/09/28 19:37:12;;;;;;;41.17;20.75;;;10.70;99.90;;;;;;9860767;30;20663;-78
2022/09/28 19:42:13;;;;;;;38.92;21.38;;;10.70;99.90;;;;;;9857760;30;20032;-78
2022/09/28 19:47:13;;;;;;;42.92;21.63;;;10.60;99.90;;;;;;9856405;30;20374;-80
2022/09/28 19:52:14;;;;;;;74.30;31.48;;;10.70;99.90;;;;;;9861964;30;20054;-79
2022/09/28 19:57:15;;;;;;;56.45;28.52;;;10.70;99.90;;;;;;9860429;30;20043;-80
2022/09/28 20:02:15;;;;;;;81.60;38.28;;;10.70;99.90;;;;;;9861931;30;20059;-81
2022/09/28 20:07:17;;;;;;;142.63;54.15;;;10.70;99.90;;;;;;9855962;30;20056;-80
2022/09/28 20:12:18;;;;;;;123.80;52.60;;;10.80;99.90;;;;;;9860182;30;20039;-78
2022/09/28 20:17:20;;;;;;;125.18;57.45;;;10.80;99.90;;;;;;9861174;30;20505;-81
2022/09/28 20:22:21;;;;;;;100.32;57.53;;;10.80;99.90;;;;;;9856743;30;20113;-80
2022/09/28 20:27:21;;;;;;;65.07;38.92;;;10.80;99.90;;;;;;9859459;30;20047;-79
2022/09/28 20:32:22;;;;;;;74.60;38.28;;;10.80;99.90;;;;;;9844333;30;20421;-81
2022/09/28 20:37:25;;;;;;;95.43;49.03;;;10.80;99.90;;;;;;9860469;30;20764;-79
2022/09/28 20:42:25;;;;;;;97.28;52.17;;;10.80;99.90;;;;;;9843921;30;20051;-78
2022/09/28 20:47:26;;;;;;;112.35;54.75;;;10.90;99.90;;;;;;9859381;30;20043;-81
2022/09/28 20:52:26;;;;;;;123.38;53.00;;;10.90;99.90;;;;;;9860689;30;20039;-80
2022/09/28 20:57:27;;;;;;;116.90;50.95;;;10.90;99.90;;;;;;9861725;30;20039;-78
2022/09/28 21:02:28;;;;;;;87.72;43.30;;;10.80;99.90;;;;;;9867508;30;20059;-82
2022/09/28 21:07:28;;;;;;;123.32;50.92;;;10.80;99.90;;;;;;9868280;30;20048;-79
2022/09/28 21:12:29;;;;;;;95.35;49.42;;;10.70;99.90;;;;;;9861499;30;20063;-80
2022/09/28 21:17:31;;;;;;;134.50;54.88;;;10.70;99.90;;;;;;9866946;30;20056;-79
2022/09/28 21:22:31;;;;;;;127.72;57.08;;;10.70;99.90;;;;;;9866661;30;20040;-79
2022/09/28 21:27:32;;;;;;;127.13;51.63;;;10.60;99.90;;;;;;9866290;30;20460;-78
2022/09/28 21:32:34;;;;;;;133.38;54.97;;;10.60;99.90;;;;;;9866265;30;20126;-79
2022/09/28 21:37:34;;;;;;;137.43;54.22;;;10.60;99.90;;;;;;9866446;30;20040;-79
2022/09/28 21:42:35;;;;;;;187.90;69.75;;;10.50;99.90;;;;;;9865090;30;20079;-81
2022/09/28 21:47:35;;;;;;;113.70;52.25;;;10.40;99.90;;;;;;9865372;30;20524;-78
2022/09/28 21:52:36;;;;;;;161.68;69.72;;;10.40;99.90;;;;;;9865983;30;20044;-78
2022/09/28 21:57:36;;;;;;;204.20;92.97;;;10.40;99.90;;;;;;9861151;30;20048;-78
2022/09/28 22:02:37;;;;;;;162.77;72.18;;;10.50;99.90;;;;;;9864716;30;20743;-78
2022/09/28 22:07:40;;;;;;;144.60;70.32;;;10.50;99.90;;;;;;9864829;30;20031;-79
2022/09/28 22:12:40;;;;;;;192.25;83.43;;;10.50;99.90;;;;;;9864360;30;20031;-79
2022/09/28 22:17:41;;;;;;;269.13;91.70;;;10.50;99.90;;;;;;9864659;30;20476;-78
2022/09/28 22:22:41;;;;;;;242.18;91.68;;;10.30;99.90;;;;;;9865521;30;20454;-80
2022/09/28 22:27:42;;;;;;;202.32;79.50;;;10.30;99.90;;;;;;9863238;30;20078;-80
2022/09/28 22:32:42;;;;;;;216.13;93.97;;;10.30;99.90;;;;;;9864874;30;20054;-78
2022/09/28 22:37:43;;;;;;;153.38;77.97;;;10.30;99.90;;;;;;9864685;30;20047;-78
2022/09/28 22:42:43;;;;;;;111.57;59.30;;;10.30;99.90;;;;;;9863569;30;20043;-81
2022/09/28 22:47:44;;;;;;;126.63;62.25;;;10.20;99.90;;;;;;9863857;30;20039;-78
2022/09/28 22:52:44;;;;;;;116.07;56.75;;;10.30;99.90;;;;;;9864117;30;20093;-81
2022/09/28 22:57:45;;;;;;;98.75;51.35;;;10.30;99.90;;;;;;9862276;30;20564;-79
2022/09/28 23:02:46;;;;;;;96.68;46.33;;;10.30;99.90;;;;;;9863480;30;20064;-78
2022/09/28 23:07:46;;;;;;;87.10;41.42;;;10.30;99.90;;;;;;9858686;30;20035;-80
2022/09/28 23:12:47;;;;;;;65.35;32.40;;;10.20;99.90;;;;;;9862005;30;20408;-78
2022/09/28 23:17:51;;;;;;;65.68;31.77;;;10.20;99.90;;;;;;9862952;30;20090;-81
2022/09/28 23:22:52;;;;;;;78.65;35.72;;;10.10;99.90;;;;;;9860782;30;20036;-78
2022/09/28 23:27:52;;;;;;;70.70;32.25;;;10.10;99.90;;;;;;9861602;30;20066;-80
2022/09/28 23:32:53;;;;;;;66.70;31.00;;;10.10;99.90;;;;;;9862626;30;20047;-80
2022/09/28 23:37:53;;;;;;;70.93;32.47;;;10.10;99.90;;;;;;9860854;30;20081;-79
2022/09/28 23:42:54;;;;;;;63.30;31.00;;;10.00;99.90;;;;;;9861388;30;20032;-79
2022/09/28 23:47:55;;;;;;;61.70;27.67;;;9.90;99.90;;;;;;9862444;30;20050;-79
2022/09/28 23:52:56;;;;;;;56.40;26.98;;;9.90;99.90;;;;;;9861839;30;20461;-79
2022/09/28 23:57:57;;;;;;;48.00;23.30;;;9.90;99.90;;;;;;9861090;30;20062;-78
